sensor_id;sensor_type;location;lat;lon;timestamp;temperature;humidity
18506;DHT22;9382;53.242;10.438;2023-05-23T00:00:38;15.70;99.90
18506;DHT22;9382;53.242;10.438;2023-05-23T00:03:04;15.60;99.90
18506;DHT22;9382;53.242;10.438;2023-05-23T00:05:31;15.60;99.90
18506;DHT22;9382;53.242;10.438;2023-05-23T00:07:58;15.60;99.90
18506;DHT22;9382;53.242;10.438;2023-05-23T00:10:25;15.60;99.90
18506;DHT22;9382;53.242;10.438;2023-05-23T00:12:52;15.50;99.90
18506;DHT22;9382;53.242;10.438;2023-05-23T00:15:18;15.50;99.90
18506;DHT22;9382;53.242;10.438;2023-05-23T00:17:46;15.50;99.90
18506;DHT22;9382;53.242;10.438;2023-05-23T00:20:13;15.50;99.90
18506;DHT22;9382;53.242;10.438;2023-05-23T00:22:40;15.50;99.90
18506;DHT22;9382;53.242;10.438;2023-05-23T00:25:08;15.50;99.90
18506;DHT22;9382;53.242;10.438;2023-05-23T00:27:35;15.50;99.90
18506;DHT22;9382;53.242;10.438;2023-05-23T00:30:02;15.50;99.90
18506;DHT22;9382;53.242;10.438;2023-05-23T00:32:29;15.50;99.90
18506;DHT22;9382;53.242;10.438;2023-05-23T00:34:57;15.50;99.90
18506;DHT22;9382;53.242;10.438;2023-05-23T00:37:23;15.40;99.90
18506;DHT22;9382;53.242;10.438;2023-05-23T00:39:51;15.40;99.90
18506;DHT22;9382;53.242;10.438;2023-05-23T00:42:17;15.40;99.90
18506;DHT22;9382;53.242;10.438;2023-05-23T00:44:44;15.30;99.90
18506;DHT22;9382;53.242;10.438;2023-05-23T00:47:12;15.30;99.90
18506;DHT22;9382;53.242;10.438;2023-05-23T00:49:39;15.30;99.90
18506;DHT22;9382;53.242;10.438;2023-05-23T00:52:07;15.20;99.90
18506;DHT22;9382;53.242;10.438;2023-05-23T00:54:35;15.20;99.90
18506;DHT22;9382;53.242;10.438;2023-05-23T00:57:02;15.30;99.90
18506;DHT22;9382;53.242;10.438;2023-05-23T00:59:29;15.30;99.90
18506;DHT22;9382;53.242;10.438;2023-05-23T01:01:58;15.30;99.90
18506;DHT22;9382;53.242;10.438;2023-05-23T01:04:26;15.30;99.90
18506;DHT22;9382;53.242;10.438;2023-05-23T01:06:53;15.30;99.90
18506;DHT22;9382;53.242;10.438;2023-05-23T01:09:22;15.30;99.90
18506;DHT22;9382;53.242;10.438;2023-05-23T01:11:58;15.20;99.90
18506;DHT22;9382;53.242;10.438;2023-05-23T01:14:31;15.30;99.90
18506;DHT22;9382;53.242;10.438;2023-05-23T01:17:06;15.30;99.90
18506;DHT22;9382;53.242;10.438;2023-05-23T01:19:48;15.40;99.90
18506;DHT22;9382;53.242;10.438;2023-05-23T01:22:22;15.40;99.90
18506;DHT22;9382;53.242;10.438;2023-05-23T01:24:59;15.40;99.90
18506;DHT22;9382;53.242;10.438;2023-05-23T01:27:44;15.50;99.90
18506;DHT22;9382;53.242;10.438;2023-05-23T01:30:13;15.50;99.90
18506;DHT22;9382;53.242;10.438;2023-05-23T01:32:43;15.40;99.90
18506;DHT22;9382;53.242;10.438;2023-05-23T01:35:11;15.40;99.90
18506;DHT22;9382;53.242;10.438;2023-05-23T01:37:38;15.40;99.90
18506;DHT22;9382;53.242;10.438;2023-05-23T01:40:07;15.40;99.90
18506;DHT22;9382;53.242;10.438;2023-05-23T01:42:33;15.50;99.90
18506;DHT22;9382;53.242;10.438;2023-05-23T01:45:01;15.50;99.90
18506;DHT22;9382;53.242;10.438;2023-05-23T01:47:28;15.50;99.90
18506;DHT22;9382;53.242;10.438;2023-05-23T01:49:56;15.50;99.90
18506;DHT22;9382;53.242;10.438;2023-05-23T01:52:25;15.50;99.90
18506;DHT22;9382;53.242;10.438;2023-05-23T01:54:52;15.50;99.90
18506;DHT22;9382;53.242;10.438;2023-05-23T01:57:21;15.60;99.90
18506;DHT22;9382;53.242;10.438;2023-05-23T01:59:48;15.60;99.90
18506;DHT22;9382;53.242;10.438;2023-05-23T02:02:16;15.60;99.90
18506;DHT22;9382;53.242;10.438;2023-05-23T02:04:42;15.70;99.90
18506;DHT22;9382;53.242;10.438;2023-05-23T02:07:09;15.70;99.90
18506;DHT22;9382;53.242;10.438;2023-05-23T02:09:36;15.70;99.90
18506;DHT22;9382;53.242;10.438;2023-05-23T02:12:03;15.70;99.90
18506;DHT22;9382;53.242;10.438;2023-05-23T02:14:30;15.70;99.90
18506;DHT22;9382;53.242;10.438;2023-05-23T02:16:56;15.70;99.90
18506;DHT22;9382;53.242;10.438;2023-05-23T02:19:26;15.70;99.90
18506;DHT22;9382;53.242;10.438;2023-05-23T02:21:52;15.70;99.90
18506;DHT22;9382;53.242;10.438;2023-05-23T02:24:19;15.80;99.90
18506;DHT22;9382;53.242;10.438;2023-05-23T02:26:46;15.80;99.90
18506;DHT22;9382;53.242;10.438;2023-05-23T02:29:12;15.80;99.90
18506;DHT22;9382;53.242;10.438;2023-05-23T02:31:39;15.80;99.90
18506;DHT22;9382;53.242;10.438;2023-05-23T02:34:05;15.80;99.90
18506;DHT22;9382;53.242;10.438;2023-05-23T02:36:33;15.80;99.90
18506;DHT22;9382;53.242;10.438;2023-05-23T02:39:01;15.70;99.90
18506;DHT22;9382;53.242;10.438;2023-05-23T02:41:28;15.80;99.90
18506;DHT22;9382;53.242;10.438;2023-05-23T02:43:55;15.70;99.90
18506;DHT22;9382;53.242;10.438;2023-05-23T02:46:21;15.80;99.90
18506;DHT22;9382;53.242;10.438;2023-05-23T02:48:48;15.70;99.90
18506;DHT22;9382;53.242;10.438;2023-05-23T02:51:15;15.70;99.90
18506;DHT22;9382;53.242;10.438;2023-05-23T02:53:43;15.70;99.90
18506;DHT22;9382;53.242;10.438;2023-05-23T02:56:09;15.60;99.90
18506;DHT22;9382;53.242;10.438;2023-05-23T02:58:38;15.50;99.90
18506;DHT22;9382;53.242;10.438;2023-05-23T03:01:05;15.50;99.90
18506;DHT22;9382;53.242;10.438;2023-05-23T03:03:32;15.50;99.90
18506;DHT22;9382;53.242;10.438;2023-05-23T03:05:59;15.40;99.90
18506;DHT22;9382;53.242;10.438;2023-05-23T03:08:27;15.40;99.90
18506;DHT22;9382;53.242;10.438;2023-05-23T03:10:55;15.40;99.90
18506;DHT22;9382;53.242;10.438;2023-05-23T03:13:21;15.40;99.90
18506;DHT22;9382;53.242;10.438;2023-05-23T03:15:48;15.40;99.90
18506;DHT22;9382;53.242;10.438;2023-05-23T03:18:14;15.40;99.90
18506;DHT22;9382;53.242;10.438;2023-05-23T03:20:41;15.30;99.90
18506;DHT22;9382;53.242;10.438;2023-05-23T03:23:08;15.20;99.90
18506;DHT22;9382;53.242;10.438;2023-05-23T03:25:34;15.20;99.90
18506;DHT22;9382;53.242;10.438;2023-05-23T03:28:02;15.20;99.90
18506;DHT22;9382;53.242;10.438;2023-05-23T03:30:29;15.10;99.90
18506;DHT22;9382;53.242;10.438;2023-05-23T03:32:56;15.10;99.90
18506;DHT22;9382;53.242;10.438;2023-05-23T03:35:22;15.00;99.90
18506;DHT22;9382;53.242;10.438;2023-05-23T03:37:49;15.00;99.90
18506;DHT22;9382;53.242;10.438;2023-05-23T03:40:16;15.00;99.90
18506;DHT22;9382;53.242;10.438;2023-05-23T03:42:42;15.00;99.90
18506;DHT22;9382;53.242;10.438;2023-05-23T03:45:10;14.90;99.90
18506;DHT22;9382;53.242;10.438;2023-05-23T03:47:37;14.90;99.90
18506;DHT22;9382;53.242;10.438;2023-05-23T03:50:05;15.00;99.90
18506;DHT22;9382;53.242;10.438;2023-05-23T03:52:31;14.90;99.90
18506;DHT22;9382;53.242;10.438;2023-05-23T03:54:58;14.90;99.90
18506;DHT22;9382;53.242;10.438;2023-05-23T03:57:25;14.90;99.90
18506;DHT22;9382;53.242;10.438;2023-05-23T03:59:51;15.00;99.90
18506;DHT22;9382;53.242;10.438;2023-05-23T04:02:19;15.00;99.90
18506;DHT22;9382;53.242;10.438;2023-05-23T04:04:46;15.00;99.90
18506;DHT22;9382;53.242;10.438;2023-05-23T04:07:12;14.90;99.90
18506;DHT22;9382;53.242;10.438;2023-05-23T04:09:40;15.00;99.90
18506;DHT22;9382;53.242;10.438;2023-05-23T04:12:07;14.90;99.90
18506;DHT22;9382;53.242;10.438;2023-05-23T04:14:34;15.00;99.90
18506;DHT22;9382;53.242;10.438;2023-05-23T04:17:00;14.80;99.90
18506;DHT22;9382;53.242;10.438;2023-05-23T04:19:28;14.80;99.90
18506;DHT22;9382;53.242;10.438;2023-05-23T04:21:55;14.80;99.90
18506;DHT22;9382;53.242;10.438;2023-05-23T04:24:21;14.80;99.90
18506;DHT22;9382;53.242;10.438;2023-05-23T04:26:48;14.80;99.90
18506;DHT22;9382;53.242;10.438;2023-05-23T04:29:15;14.80;99.90
18506;DHT22;9382;53.242;10.438;2023-05-23T04:31:41;14.70;99.90
18506;DHT22;9382;53.242;10.438;2023-05-23T04:34:10;14.70;99.90
18506;DHT22;9382;53.242;10.438;2023-05-23T04:36:38;14.70;99.90
18506;DHT22;9382;53.242;10.438;2023-05-23T04:39:04;14.70;99.90
18506;DHT22;9382;53.242;10.438;2023-05-23T04:41:31;14.70;99.90
18506;DHT22;9382;53.242;10.438;2023-05-23T04:43:58;14.70;99.90
18506;DHT22;9382;53.242;10.438;2023-05-23T04:46:24;14.70;99.90
18506;DHT22;9382;53.242;10.438;2023-05-23T04:48:51;14.70;99.90
18506;DHT22;9382;53.242;10.438;2023-05-23T04:51:19;14.60;99.90
18506;DHT22;9382;53.242;10.438;2023-05-23T04:53:47;14.70;99.90
18506;DHT22;9382;53.242;10.438;2023-05-23T04:56:14;14.60;99.90
18506;DHT22;9382;53.242;10.438;2023-05-23T04:58:42;14.60;99.90
18506;DHT22;9382;53.242;10.438;2023-05-23T05:01:09;14.60;99.90
18506;DHT22;9382;53.242;10.438;2023-05-23T05:03:36;14.60;99.90
18506;DHT22;9382;53.242;10.438;2023-05-23T05:06:03;14.50;99.90
18506;DHT22;9382;53.242;10.438;2023-05-23T05:08:30;14.50;99.90
18506;DHT22;9382;53.242;10.438;2023-05-23T05:10:58;14.40;99.90
18506;DHT22;9382;53.242;10.438;2023-05-23T05:13:24;14.40;99.90
18506;DHT22;9382;53.242;10.438;2023-05-23T05:15:51;14.30;99.90
18506;DHT22;9382;53.242;10.438;2023-05-23T05:18:18;14.30;99.90
18506;DHT22;9382;53.242;10.438;2023-05-23T05:20:44;14.30;99.90
18506;DHT22;9382;53.242;10.438;2023-05-23T05:23:11;14.30;99.90
18506;DHT22;9382;53.242;10.438;2023-05-23T05:25:38;14.30;99.90
18506;DHT22;9382;53.242;10.438;2023-05-23T05:28:07;14.30;99.90
18506;DHT22;9382;53.242;10.438;2023-05-23T05:30:33;14.40;99.90
18506;DHT22;9382;53.242;10.438;2023-05-23T05:33:00;14.40;99.90
18506;DHT22;9382;53.242;10.438;2023-05-23T05:35:29;14.40;99.90
18506;DHT22;9382;53.242;10.438;2023-05-23T05:37:56;14.30;99.90
18506;DHT22;9382;53.242;10.438;2023-05-23T05:40:22;14.30;99.90
18506;DHT22;9382;53.242;10.438;2023-05-23T05:42:49;14.30;99.90
18506;DHT22;9382;53.242;10.438;2023-05-23T05:45:17;14.40;99.90
18506;DHT22;9382;53.242;10.438;2023-05-23T05:47:44;14.40;99.90
18506;DHT22;9382;53.242;10.438;2023-05-23T05:50:11;14.50;99.90
18506;DHT22;9382;53.242;10.438;2023-05-23T05:52:38;14.50;99.90
18506;DHT22;9382;53.242;10.438;2023-05-23T05:55:05;14.60;99.90
18506;DHT22;9382;53.242;10.438;2023-05-23T05:57:32;14.50;99.90
18506;DHT22;9382;53.242;10.438;2023-05-23T05:59:59;14.60;99.90
18506;DHT22;9382;53.242;10.438;2023-05-23T06:02:27;14.60;99.90
18506;DHT22;9382;53.242;10.438;2023-05-23T06:04:53;14.50;99.90
18506;DHT22;9382;53.242;10.438;2023-05-23T06:07:20;14.40;99.90
18506;DHT22;9382;53.242;10.438;2023-05-23T06:09:46;14.30;99.90
18506;DHT22;9382;53.242;10.438;2023-05-23T06:12:13;14.30;99.90
18506;DHT22;9382;53.242;10.438;2023-05-23T06:14:40;14.30;99.90
18506;DHT22;9382;53.242;10.438;2023-05-23T06:17:06;14.30;99.90
18506;DHT22;9382;53.242;10.438;2023-05-23T06:19:34;14.40;99.90
18506;DHT22;9382;53.242;10.438;2023-05-23T06:22:03;14.40;99.90
18506;DHT22;9382;53.242;10.438;2023-05-23T06:24:29;14.40;99.90
18506;DHT22;9382;53.242;10.438;2023-05-23T06:26:56;14.40;99.90
18506;DHT22;9382;53.242;10.438;2023-05-23T06:29:23;14.40;99.90
18506;DHT22;9382;53.242;10.438;2023-05-23T06:31:49;14.40;99.90
18506;DHT22;9382;53.242;10.438;2023-05-23T06:34:16;14.30;99.90
18506;DHT22;9382;53.242;10.438;2023-05-23T06:36:44;14.30;99.90
18506;DHT22;9382;53.242;10.438;2023-05-23T06:39:12;14.30;99.90
18506;DHT22;9382;53.242;10.438;2023-05-23T06:41:39;14.30;99.90
18506;DHT22;9382;53.242;10.438;2023-05-23T06:44:06;14.30;99.90
18506;DHT22;9382;53.242;10.438;2023-05-23T06:46:32;14.40;99.90
18506;DHT22;9382;53.242;10.438;2023-05-23T06:48:59;14.40;99.90
18506;DHT22;9382;53.242;10.438;2023-05-23T06:51:26;14.50;99.90
18506;DHT22;9382;53.242;10.438;2023-05-23T06:53:54;14.60;99.90
18506;DHT22;9382;53.242;10.438;2023-05-23T06:56:21;14.60;99.90
18506;DHT22;9382;53.242;10.438;2023-05-23T06:58:48;14.50;99.90
18506;DHT22;9382;53.242;10.438;2023-05-23T07:01:14;14.50;99.90
18506;DHT22;9382;53.242;10.438;2023-05-23T07:03:41;14.60;99.90
18506;DHT22;9382;53.242;10.438;2023-05-23T07:06:10;14.60;99.90
18506;DHT22;9382;53.242;10.438;2023-05-23T07:08:37;14.70;99.90
18506;DHT22;9382;53.242;10.438;2023-05-23T07:11:05;14.60;99.90
18506;DHT22;9382;53.242;10.438;2023-05-23T07:13:32;14.70;99.90
18506;DHT22;9382;53.242;10.438;2023-05-23T07:15:59;14.80;99.90
18506;DHT22;9382;53.242;10.438;2023-05-23T07:18:25;14.80;99.90
18506;DHT22;9382;53.242;10.438;2023-05-23T07:20:52;14.90;99.90
18506;DHT22;9382;53.242;10.438;2023-05-23T07:23:19;14.90;99.90
18506;DHT22;9382;53.242;10.438;2023-05-23T07:25:45;15.00;99.90
18506;DHT22;9382;53.242;10.438;2023-05-23T07:28:13;15.00;99.90
18506;DHT22;9382;53.242;10.438;2023-05-23T07:30:40;15.00;99.90
18506;DHT22;9382;53.242;10.438;2023-05-23T07:33:07;15.00;99.90
18506;DHT22;9382;53.242;10.438;2023-05-23T07:35:33;15.00;99.90
18506;DHT22;9382;53.242;10.438;2023-05-23T07:38:00;15.10;99.90
18506;DHT22;9382;53.242;10.438;2023-05-23T07:40:27;15.10;99.90
18506;DHT22;9382;53.242;10.438;2023-05-23T07:42:53;15.10;99.90
18506;DHT22;9382;53.242;10.438;2023-05-23T07:45:21;15.10;99.90
18506;DHT22;9382;53.242;10.438;2023-05-23T07:47:48;15.10;99.90
18506;DHT22;9382;53.242;10.438;2023-05-23T07:50:14;15.10;99.90
18506;DHT22;9382;53.242;10.438;2023-05-23T07:52:42;15.10;99.90
18506;DHT22;9382;53.242;10.438;2023-05-23T07:55:09;15.10;99.90
18506;DHT22;9382;53.242;10.438;2023-05-23T07:57:36;15.00;99.90
18506;DHT22;9382;53.242;10.438;2023-05-23T08:00:03;15.00;99.90
18506;DHT22;9382;53.242;10.438;2023-05-23T08:02:31;15.00;99.90
18506;DHT22;9382;53.242;10.438;2023-05-23T08:04:58;15.10;99.90
18506;DHT22;9382;53.242;10.438;2023-05-23T08:07:25;15.20;99.90
18506;DHT22;9382;53.242;10.438;2023-05-23T08:09:51;15.20;99.90
18506;DHT22;9382;53.242;10.438;2023-05-23T08:12:18;15.30;99.90
18506;DHT22;9382;53.242;10.438;2023-05-23T08:14:45;15.30;99.90
18506;DHT22;9382;53.242;10.438;2023-05-23T08:17:11;15.40;99.90
18506;DHT22;9382;53.242;10.438;2023-05-23T08:19:39;15.50;99.90
18506;DHT22;9382;53.242;10.438;2023-05-23T08:22:07;15.50;99.90
18506;DHT22;9382;53.242;10.438;2023-05-23T08:24:33;15.50;99.90
18506;DHT22;9382;53.242;10.438;2023-05-23T08:27:00;15.40;99.90
18506;DHT22;9382;53.242;10.438;2023-05-23T08:29:27;15.50;99.90
18506;DHT22;9382;53.242;10.438;2023-05-23T08:31:53;15.50;99.90
18506;DHT22;9382;53.242;10.438;2023-05-23T08:34:20;15.50;99.90
18506;DHT22;9382;53.242;10.438;2023-05-23T08:36:48;15.40;99.90
18506;DHT22;9382;53.242;10.438;2023-05-23T08:39:15;15.30;99.90
18506;DHT22;9382;53.242;10.438;2023-05-23T08:41:42;15.30;99.90
18506;DHT22;9382;53.242;10.438;2023-05-23T08:44:09;15.20;99.90
18506;DHT22;9382;53.242;10.438;2023-05-23T08:46:39;15.10;99.90
18506;DHT22;9382;53.242;10.438;2023-05-23T08:49:09;15.00;99.90
18506;DHT22;9382;53.242;10.438;2023-05-23T08:51:37;15.00;99.90
18506;DHT22;9382;53.242;10.438;2023-05-23T08:54:07;15.00;99.90
18506;DHT22;9382;53.242;10.438;2023-05-23T08:56:37;15.00;99.90
18506;DHT22;9382;53.242;10.438;2023-05-23T08:59:06;15.20;99.90
18506;DHT22;9382;53.242;10.438;2023-05-23T09:01:34;15.30;99.90
18506;DHT22;9382;53.242;10.438;2023-05-23T09:04:01;15.60;99.90
18506;DHT22;9382;53.242;10.438;2023-05-23T09:06:29;15.70;99.90
18506;DHT22;9382;53.242;10.438;2023-05-23T09:08:56;15.90;99.90
18506;DHT22;9382;53.242;10.438;2023-05-23T09:11:24;16.10;99.90
18506;DHT22;9382;53.242;10.438;2023-05-23T09:13:51;16.20;99.90
18506;DHT22;9382;53.242;10.438;2023-05-23T09:16:18;16.20;99.90
18506;DHT22;9382;53.242;10.438;2023-05-23T09:18:45;16.20;99.90
18506;DHT22;9382;53.242;10.438;2023-05-23T09:21:12;16.00;99.90
18506;DHT22;9382;53.242;10.438;2023-05-23T09:23:40;15.80;99.90
18506;DHT22;9382;53.242;10.438;2023-05-23T09:26:09;15.70;99.90
18506;DHT22;9382;53.242;10.438;2023-05-23T09:28:38;15.60;99.90
18506;DHT22;9382;53.242;10.438;2023-05-23T09:31:06;15.60;99.90
18506;DHT22;9382;53.242;10.438;2023-05-23T09:33:35;15.50;99.90
18506;DHT22;9382;53.242;10.438;2023-05-23T09:36:03;15.50;99.90
18506;DHT22;9382;53.242;10.438;2023-05-23T09:38:30;15.60;99.90
18506;DHT22;9382;53.242;10.438;2023-05-23T09:40:58;15.50;99.90
18506;DHT22;9382;53.242;10.438;2023-05-23T09:43:25;15.40;99.90
18506;DHT22;9382;53.242;10.438;2023-05-23T09:45:59;15.40;99.90
18506;DHT22;9382;53.242;10.438;2023-05-23T09:48:29;15.30;99.90
18506;DHT22;9382;53.242;10.438;2023-05-23T09:50:56;15.30;99.90
18506;DHT22;9382;53.242;10.438;2023-05-23T09:53:23;15.30;99.90
18506;DHT22;9382;53.242;10.438;2023-05-23T09:55:50;15.40;99.90
18506;DHT22;9382;53.242;10.438;2023-05-23T09:58:18;15.50;99.90
18506;DHT22;9382;53.242;10.438;2023-05-23T10:00:46;15.50;99.90
18506;DHT22;9382;53.242;10.438;2023-05-23T10:03:16;15.50;99.90
18506;DHT22;9382;53.242;10.438;2023-05-23T10:05:48;15.40;99.90
18506;DHT22;9382;53.242;10.438;2023-05-23T10:08:18;15.30;99.90
18506;DHT22;9382;53.242;10.438;2023-05-23T10:14:16;15.00;99.90
18506;DHT22;9382;53.242;10.438;2023-05-23T10:16:52;14.80;99.90
18506;DHT22;9382;53.242;10.438;2023-05-23T10:19:24;14.70;99.90
18506;DHT22;9382;53.242;10.438;2023-05-23T10:21:56;14.50;99.90
18506;DHT22;9382;53.242;10.438;2023-05-23T10:24:24;14.50;99.90
18506;DHT22;9382;53.242;10.438;2023-05-23T10:26:51;14.40;99.90
18506;DHT22;9382;53.242;10.438;2023-05-23T10:29:19;14.20;99.90
18506;DHT22;9382;53.242;10.438;2023-05-23T10:31:46;14.20;99.90
18506;DHT22;9382;53.242;10.438;2023-05-23T10:34:20;14.20;99.90
18506;DHT22;9382;53.242;10.438;2023-05-23T10:36:54;14.00;99.90
18506;DHT22;9382;53.242;10.438;2023-05-23T10:39:31;13.80;99.90
18506;DHT22;9382;53.242;10.438;2023-05-23T10:42:02;13.80;99.90
18506;DHT22;9382;53.242;10.438;2023-05-23T10:44:31;13.70;99.90
18506;DHT22;9382;53.242;10.438;2023-05-23T10:46:59;13.70;99.90
18506;DHT22;9382;53.242;10.438;2023-05-23T10:49:42;13.60;99.90
18506;DHT22;9382;53.242;10.438;2023-05-23T10:52:11;13.50;99.90
18506;DHT22;9382;53.242;10.438;2023-05-23T10:54:42;13.40;99.90
18506;DHT22;9382;53.242;10.438;2023-05-23T10:57:10;13.40;99.90
18506;DHT22;9382;53.242;10.438;2023-05-23T10:59:38;13.40;99.90
18506;DHT22;9382;53.242;10.438;2023-05-23T11:02:12;13.40;99.90
18506;DHT22;9382;53.242;10.438;2023-05-23T11:04:40;13.40;99.90
18506;DHT22;9382;53.242;10.438;2023-05-23T11:07:27;13.40;99.90
18506;DHT22;9382;53.242;10.438;2023-05-23T11:10:08;13.40;99.90
18506;DHT22;9382;53.242;10.438;2023-05-23T11:12:37;13.50;99.90
18506;DHT22;9382;53.242;10.438;2023-05-23T11:15:18;13.50;99.90
18506;DHT22;9382;53.242;10.438;2023-05-23T11:17:50;13.40;99.90
18506;DHT22;9382;53.242;10.438;2023-05-23T11:20:18;13.40;99.90
18506;DHT22;9382;53.242;10.438;2023-05-23T11:22:58;13.40;99.90
18506;DHT22;9382;53.242;10.438;2023-05-23T11:25:40;13.30;99.90
18506;DHT22;9382;53.242;10.438;2023-05-23T11:28:07;13.20;99.90
18506;DHT22;9382;53.242;10.438;2023-05-23T11:30:34;13.30;99.90
18506;DHT22;9382;53.242;10.438;2023-05-23T11:33:06;13.30;99.90
18506;DHT22;9382;53.242;10.438;2023-05-23T11:35:34;13.30;99.90
18506;DHT22;9382;53.242;10.438;2023-05-23T11:38:03;13.20;99.90
18506;DHT22;9382;53.242;10.438;2023-05-23T11:40:31;13.20;99.90
18506;DHT22;9382;53.242;10.438;2023-05-23T11:42:59;13.20;99.90
18506;DHT22;9382;53.242;10.438;2023-05-23T11:45:26;13.30;99.90
18506;DHT22;9382;53.242;10.438;2023-05-23T11:47:53;13.30;99.90
18506;DHT22;9382;53.242;10.438;2023-05-23T11:50:20;13.30;99.90
18506;DHT22;9382;53.242;10.438;2023-05-23T11:52:49;13.30;99.90
18506;DHT22;9382;53.242;10.438;2023-05-23T11:55:18;13.20;99.90
18506;DHT22;9382;53.242;10.438;2023-05-23T11:57:45;13.10;99.90
18506;DHT22;9382;53.242;10.438;2023-05-23T12:00:13;13.20;99.90
18506;DHT22;9382;53.242;10.438;2023-05-23T12:02:40;13.20;99.90
18506;DHT22;9382;53.242;10.438;2023-05-23T12:05:08;13.30;99.90
18506;DHT22;9382;53.242;10.438;2023-05-23T12:07:35;13.30;99.90
18506;DHT22;9382;53.242;10.438;2023-05-23T12:10:02;13.40;99.90
18506;DHT22;9382;53.242;10.438;2023-05-23T12:12:32;13.40;99.90
18506;DHT22;9382;53.242;10.438;2023-05-23T12:14:58;13.60;99.90
18506;DHT22;9382;53.242;10.438;2023-05-23T12:17:26;13.90;99.90
18506;DHT22;9382;53.242;10.438;2023-05-23T12:19:52;14.30;99.90
18506;DHT22;9382;53.242;10.438;2023-05-23T12:22:22;14.50;99.90
18506;DHT22;9382;53.242;10.438;2023-05-23T12:24:52;14.80;99.90
18506;DHT22;9382;53.242;10.438;2023-05-23T12:27:26;15.10;99.90
18506;DHT22;9382;53.242;10.438;2023-05-23T12:30:04;15.60;99.90
18506;DHT22;9382;53.242;10.438;2023-05-23T12:32:31;16.10;99.90
18506;DHT22;9382;53.242;10.438;2023-05-23T12:34:58;16.70;99.90
18506;DHT22;9382;53.242;10.438;2023-05-23T12:37:25;17.10;99.90
18506;DHT22;9382;53.242;10.438;2023-05-23T12:39:52;17.30;99.90
18506;DHT22;9382;53.242;10.438;2023-05-23T12:42:18;17.50;99.90
18506;DHT22;9382;53.242;10.438;2023-05-23T12:44:45;17.70;99.90
18506;DHT22;9382;53.242;10.438;2023-05-23T12:47:16;18.50;99.90
18506;DHT22;9382;53.242;10.438;2023-05-23T12:49:42;18.80;99.90
18506;DHT22;9382;53.242;10.438;2023-05-23T12:52:11;18.40;99.90
18506;DHT22;9382;53.242;10.438;2023-05-23T12:54:37;18.20;99.90
18506;DHT22;9382;53.242;10.438;2023-05-23T12:57:04;18.30;99.90
18506;DHT22;9382;53.242;10.438;2023-05-23T12:59:31;18.40;99.90
18506;DHT22;9382;53.242;10.438;2023-05-23T13:01:57;18.60;99.90
18506;DHT22;9382;53.242;10.438;2023-05-23T13:04:27;18.80;99.90
18506;DHT22;9382;53.242;10.438;2023-05-23T13:06:53;18.60;99.90
18506;DHT22;9382;53.242;10.438;2023-05-23T13:09:20;18.20;99.90
18506;DHT22;9382;53.242;10.438;2023-05-23T13:11:47;18.10;99.90
18506;DHT22;9382;53.242;10.438;2023-05-23T13:14:13;18.50;99.90
18506;DHT22;9382;53.242;10.438;2023-05-23T13:16:40;18.50;99.90
18506;DHT22;9382;53.242;10.438;2023-05-23T13:19:07;18.00;99.90
18506;DHT22;9382;53.242;10.438;2023-05-23T13:21:35;17.60;99.90
18506;DHT22;9382;53.242;10.438;2023-05-23T13:24:02;17.40;99.90
18506;DHT22;9382;53.242;10.438;2023-05-23T13:26:28;17.30;99.90
18506;DHT22;9382;53.242;10.438;2023-05-23T13:28:55;17.30;99.90
18506;DHT22;9382;53.242;10.438;2023-05-23T13:31:21;17.50;99.90
18506;DHT22;9382;53.242;10.438;2023-05-23T13:33:48;18.00;99.90
18506;DHT22;9382;53.242;10.438;2023-05-23T13:36:15;18.70;99.90
18506;DHT22;9382;53.242;10.438;2023-05-23T13:38:43;20.20;99.90
18506;DHT22;9382;53.242;10.438;2023-05-23T13:41:09;20.60;99.90
18506;DHT22;9382;53.242;10.438;2023-05-23T13:43:36;20.80;99.90
18506;DHT22;9382;53.242;10.438;2023-05-23T13:46:03;20.70;99.90
18506;DHT22;9382;53.242;10.438;2023-05-23T13:48:29;21.00;99.90
18506;DHT22;9382;53.242;10.438;2023-05-23T13:50:56;20.60;99.90
18506;DHT22;9382;53.242;10.438;2023-05-23T13:53:23;20.00;99.90
18506;DHT22;9382;53.242;10.438;2023-05-23T13:55:53;19.60;99.90
18506;DHT22;9382;53.242;10.438;2023-05-23T13:58:20;19.00;99.90
18506;DHT22;9382;53.242;10.438;2023-05-23T14:00:46;18.40;99.90
18506;DHT22;9382;53.242;10.438;2023-05-23T14:03:13;17.60;99.90
18506;DHT22;9382;53.242;10.438;2023-05-23T14:05:40;17.30;99.90
18506;DHT22;9382;53.242;10.438;2023-05-23T14:08:07;17.50;99.90
18506;DHT22;9382;53.242;10.438;2023-05-23T14:10:33;17.80;99.90
18506;DHT22;9382;53.242;10.438;2023-05-23T14:13:01;18.00;99.90
18506;DHT22;9382;53.242;10.438;2023-05-23T14:15:28;18.00;99.90
18506;DHT22;9382;53.242;10.438;2023-05-23T14:17:54;18.00;99.90
18506;DHT22;9382;53.242;10.438;2023-05-23T14:20:21;18.10;99.90
18506;DHT22;9382;53.242;10.438;2023-05-23T14:22:48;19.20;99.90
18506;DHT22;9382;53.242;10.438;2023-05-23T14:25:15;20.60;99.90
18506;DHT22;9382;53.242;10.438;2023-05-23T14:27:41;21.40;99.90
18506;DHT22;9382;53.242;10.438;2023-05-23T14:30:10;21.20;99.90
18506;DHT22;9382;53.242;10.438;2023-05-23T14:32:37;20.80;99.90
18506;DHT22;9382;53.242;10.438;2023-05-23T14:35:04;20.40;99.90
18506;DHT22;9382;53.242;10.438;2023-05-23T14:37:31;20.30;99.90
18506;DHT22;9382;53.242;10.438;2023-05-23T14:39:58;20.00;99.90
18506;DHT22;9382;53.242;10.438;2023-05-23T14:42:24;19.30;99.90
18506;DHT22;9382;53.242;10.438;2023-05-23T14:44:52;18.60;99.90
18506;DHT22;9382;53.242;10.438;2023-05-23T14:47:20;18.10;99.90
18506;DHT22;9382;53.242;10.438;2023-05-23T14:49:47;17.70;99.90
18506;DHT22;9382;53.242;10.438;2023-05-23T14:52:15;17.30;99.90
18506;DHT22;9382;53.242;10.438;2023-05-23T14:54:41;17.00;99.90
18506;DHT22;9382;53.242;10.438;2023-05-23T14:57:09;17.00;99.90
18506;DHT22;9382;53.242;10.438;2023-05-23T14:59:35;16.80;99.90
18506;DHT22;9382;53.242;10.438;2023-05-23T15:02:02;16.60;99.90
18506;DHT22;9382;53.242;10.438;2023-05-23T15:04:31;16.50;99.90
18506;DHT22;9382;53.242;10.438;2023-05-23T15:06:58;16.40;99.90
18506;DHT22;9382;53.242;10.438;2023-05-23T15:09:26;16.40;99.90
18506;DHT22;9382;53.242;10.438;2023-05-23T15:11:52;16.50;99.90
18506;DHT22;9382;53.242;10.438;2023-05-23T15:14:19;16.70;99.90
18506;DHT22;9382;53.242;10.438;2023-05-23T15:16:46;17.00;99.90
18506;DHT22;9382;53.242;10.438;2023-05-23T15:19:14;17.30;99.90
18506;DHT22;9382;53.242;10.438;2023-05-23T15:21:42;17.20;99.90
18506;DHT22;9382;53.242;10.438;2023-05-23T15:24:09;17.50;99.90
18506;DHT22;9382;53.242;10.438;2023-05-23T15:26:35;18.50;99.90
18506;DHT22;9382;53.242;10.438;2023-05-23T15:29:02;19.40;99.90
18506;DHT22;9382;53.242;10.438;2023-05-23T15:31:31;19.70;99.90
18506;DHT22;9382;53.242;10.438;2023-05-23T15:33:58;19.30;99.90
18506;DHT22;9382;53.242;10.438;2023-05-23T15:36:25;18.30;99.90